Time;durP1;ratioP1;P1;durP2;ratioP2;P2;SDS_P1;SDS_P2;PMS_P1;PMS_P2;Temp;Humidity;BMP_temperature;BMP_pressure;BME280_temperature;BME280_humidity;BME280_pressure;Samples;Min_cycle;Max_cycle;Signal;HPM_P1;HPM_P2
2024/03/14 00:00:08;;;;;;;8.70;4.80;;;11.10;85.90;;;;;;5039034;28;20189;-71
2024/03/14 00:02:34;;;;;;;11.87;5.60;;;11.10;86.00;;;;;;5044633;28;20481;-72
2024/03/14 00:04:59;;;;;;;7.53;4.87;;;11.20;86.20;;;;;;5052276;28;20415;-72
2024/03/14 00:07:26;;;;;;;8.97;5.60;;;11.10;86.20;;;;;;5051587;28;20735;-73
2024/03/14 00:09:51;;;;;;;9.90;6.23;;;11.20;86.20;;;;;;5048634;28;20185;-74
2024/03/14 00:12:17;;;;;;;8.97;6.13;;;11.20;86.20;;;;;;5043430;28;20481;-75
2024/03/14 00:14:50;;;;;;;11.17;5.57;;;11.20;85.90;;;;;;5046418;28;20181;-72
2024/03/14 00:17:18;;;;;;;7.83;5.00;;;11.20;85.70;;;;;;5045309;28;20191;-74
2024/03/14 00:19:46;;;;;;;14.07;5.63;;;11.10;85.70;;;;;;5045364;28;20427;-72
2024/03/14 00:22:12;;;;;;;10.03;4.67;;;11.20;85.90;;;;;;5037403;28;20475;-72
2024/03/14 00:24:38;;;;;;;10.03;5.83;;;11.30;86.00;;;;;;5051336;28;20449;-72
2024/03/14 00:27:04;;;;;;;11.23;4.77;;;11.30;85.60;;;;;;5048242;28;20440;-73
2024/03/14 00:29:33;;;;;;;12.47;6.60;;;11.20;85.50;;;;;;5048318;28;20509;-71
2024/03/14 00:31:59;;;;;;;8.67;5.80;;;11.10;85.60;;;;;;5045515;28;20465;-73
2024/03/14 00:34:26;;;;;;;12.67;6.07;;;11.00;85.70;;;;;;5052819;28;20818;-71
2024/03/14 00:36:53;;;;;;;13.33;6.90;;;11.00;85.90;;;;;;5048949;28;20439;-73
2024/03/14 00:39:20;;;;;;;12.17;6.63;;;10.90;86.00;;;;;;5041998;28;20197;-70
2024/03/14 00:41:46;;;;;;;10.73;5.70;;;10.80;86.20;;;;;;5042523;28;20983;-72
2024/03/14 00:44:12;;;;;;;13.30;6.17;;;10.80;86.50;;;;;;5047276;28;20442;-73
2024/03/14 00:46:37;;;;;;;12.43;5.80;;;10.70;86.60;;;;;;5048188;28;20460;-73
2024/03/14 00:49:03;;;;;;;8.40;5.13;;;10.70;86.60;;;;;;5047549;28;20238;-70
2024/03/14 00:51:28;;;;;;;7.70;5.77;;;10.70;86.60;;;;;;5040429;28;20308;-70
2024/03/14 00:53:55;;;;;;;9.27;6.10;;;10.60;86.60;;;;;;5047521;28;20177;-71
2024/03/14 00:56:21;;;;;;;13.40;6.47;;;10.50;86.60;;;;;;5048352;28;20671;-71
2024/03/14 00:58:47;;;;;;;11.90;5.80;;;10.60;87.00;;;;;;5042160;28;20411;-71
2024/03/14 01:01:13;;;;;;;10.63;6.07;;;10.50;86.90;;;;;;5044750;28;20211;-73
2024/03/14 01:03:40;;;;;;;8.40;5.80;;;10.50;87.00;;;;;;5045794;28;20508;-72
2024/03/14 01:06:11;;;;;;;12.30;6.40;;;10.40;87.00;;;;;;5044903;28;20435;-71
2024/03/14 01:08:37;;;;;;;10.53;6.50;;;10.50;87.10;;;;;;5048834;28;20855;-70
2024/03/14 01:11:03;;;;;;;15.90;7.43;;;10.40;87.30;;;;;;5050328;28;20474;-71
2024/03/14 01:13:28;;;;;;;13.40;7.87;;;10.40;87.40;;;;;;5054013;28;20466;-71
2024/03/14 01:15:54;;;;;;;12.93;7.50;;;10.40;87.40;;;;;;5047878;28;20435;-72
2024/03/14 01:18:20;;;;;;;15.27;7.90;;;10.40;87.60;;;;;;5044534;28;20192;-71
2024/03/14 01:20:45;;;;;;;9.87;6.70;;;10.30;87.60;;;;;;5046740;28;20207;-71
2024/03/14 01:23:11;;;;;;;13.97;7.70;;;10.40;87.70;;;;;;5050026;28;21086;-73
2024/03/14 01:25:37;;;;;;;15.00;6.40;;;10.30;87.70;;;;;;5051443;28;20177;-71
2024/03/14 01:28:04;;;;;;;11.27;6.60;;;10.40;87.70;;;;;;5048815;28;20496;-72
2024/03/14 01:30:30;;;;;;;13.50;7.30;;;10.50;87.60;;;;;;5047450;28;20430;-72
2024/03/14 01:32:56;;;;;;;11.07;6.87;;;10.40;87.30;;;;;;5049662;28;20434;-72
2024/03/14 01:35:21;;;;;;;12.90;7.73;;;10.40;87.10;;;;;;5047127;28;20235;-72
2024/03/14 01:37:47;;;;;;;15.03;8.10;;;10.30;87.30;;;;;;5053900;28;20185;-72
2024/03/14 01:40:12;;;;;;;10.70;6.60;;;10.40;87.40;;;;;;5047800;28;20177;-71
2024/03/14 01:42:46;;;;;;;11.27;7.70;;;10.40;87.60;;;;;;5044509;28;20230;-72
2024/03/14 01:45:15;;;;;;;14.03;8.10;;;10.30;87.40;;;;;;5048177;28;20188;-72
2024/03/14 01:47:42;;;;;;;11.37;8.07;;;10.30;87.40;;;;;;5058757;28;20419;-72
2024/03/14 01:50:08;;;;;;;10.20;7.90;;;10.30;87.70;;;;;;5056173;28;20426;-71
2024/03/14 01:52:34;;;;;;;15.40;8.20;;;10.20;87.60;;;;;;5049733;28;21011;-70
2024/03/14 01:55:02;;;;;;;13.93;7.10;;;10.20;87.80;;;;;;5050145;28;20203;-71
2024/03/14 01:57:29;;;;;;;15.17;8.60;;;10.30;87.70;;;;;;5047115;28;20447;-71
2024/03/14 01:59:58;;;;;;;13.07;8.03;;;10.20;87.60;;;;;;5049513;28;20431;-71
2024/03/14 02:02:24;;;;;;;15.30;8.10;;;10.10;87.80;;;;;;5049107;28;20513;-71
2024/03/14 02:05:07;;;;;;;11.70;7.50;;;10.10;88.10;;;;;;5045839;28;20431;-71
2024/03/14 02:07:37;;;;;;;14.83;7.93;;;10.20;88.10;;;;;;5046632;28;20762;-74
2024/03/14 02:10:04;;;;;;;13.33;8.00;;;10.10;88.10;;;;;;5047908;28;20424;-71
2024/03/14 02:12:30;;;;;;;11.87;7.60;;;10.20;88.10;;;;;;5046114;28;20496;-72
2024/03/14 02:14:55;;;;;;;15.40;8.63;;;10.10;87.80;;;;;;5049056;28;20461;-72
2024/03/14 02:17:21;;;;;;;15.30;8.30;;;10.00;87.80;;;;;;5041765;28;20177;-70
2024/03/14 02:19:47;;;;;;;18.20;9.60;;;10.00;88.10;;;;;;5047870;28;20713;-72
2024/03/14 02:22:20;;;;;;;13.80;8.10;;;10.00;88.30;;;;;;5047366;28;20216;-72
2024/03/14 02:24:52;;;;;;;14.53;7.93;;;10.00;88.40;;;;;;5051509;28;20188;-72
2024/03/14 02:27:20;;;;;;;14.67;8.10;;;10.00;88.60;;;;;;5051112;28;20431;-70
2024/03/14 02:29:45;;;;;;;15.47;8.33;;;10.00;88.60;;;;;;5052952;28;20571;-71
2024/03/14 02:32:11;;;;;;;13.00;8.20;;;10.00;88.60;;;;;;5055367;28;20483;-72
2024/03/14 02:34:36;;;;;;;14.60;9.03;;;10.10;88.40;;;;;;5058406;28;20619;-70
2024/03/14 02:37:02;;;;;;;16.37;9.50;;;10.00;88.10;;;;;;5056429;28;20192;-70
2024/03/14 02:39:29;;;;;;;17.90;8.40;;;9.90;88.10;;;;;;5049437;28;20176;-71
2024/03/14 02:41:56;;;;;;;11.93;7.90;;;9.80;88.10;;;;;;5042406;28;20204;-71
2024/03/14 02:44:23;;;;;;;15.33;9.47;;;9.90;88.40;;;;;;5050604;28;20435;-73
2024/03/14 02:46:51;;;;;;;13.80;7.97;;;9.80;88.00;;;;;;5050720;28;20430;-71
2024/03/14 02:49:21;;;;;;;14.97;9.00;;;9.70;88.00;;;;;;5051492;28;20776;-71
2024/03/14 02:51:47;;;;;;;14.70;8.63;;;9.70;88.30;;;;;;5044835;28;20459;-71
2024/03/14 02:54:16;;;;;;;14.80;8.07;;;9.60;88.40;;;;;;5051791;28;20438;-72
2024/03/14 02:56:42;;;;;;;15.00;9.40;;;9.60;88.70;;;;;;5053992;28;20443;-71
2024/03/14 02:59:10;;;;;;;14.17;8.93;;;9.70;88.90;;;;;;5053009;28;20529;-72
2024/03/14 03:01:37;;;;;;;14.53;9.07;;;9.70;88.90;;;;;;5047735;28;20566;-74
2024/03/14 03:04:04;;;;;;;13.43;8.30;;;9.60;88.90;;;;;;5054085;28;20501;-72
2024/03/14 03:06:30;;;;;;;19.70;10.27;;;9.60;88.90;;;;;;5054705;28;20780;-70
2024/03/14 03:08:59;;;;;;;20.13;9.77;;;9.60;88.90;;;;;;5062533;28;20419;-71
2024/03/14 03:11:27;;;;;;;19.20;10.80;;;9.40;88.60;;;;;;5057135;28;20962;-71
2024/03/14 03:13:52;;;;;;;17.23;10.40;;;9.30;88.70;;;;;;5058072;28;20470;-73
2024/03/14 03:16:19;;;;;;;14.43;9.13;;;9.20;89.00;;;;;;5055442;28;20415;-72
2024/03/14 03:18:45;;;;;;;16.23;9.90;;;9.20;89.20;;;;;;5054204;28;20188;-71
2024/03/14 03:21:10;;;;;;;18.60;10.00;;;9.10;89.20;;;;;;5050817;28;20481;-72
2024/03/14 03:23:36;;;;;;;18.47;10.57;;;9.10;89.30;;;;;;5052489;28;20479;-72
2024/03/14 03:26:05;;;;;;;15.60;9.70;;;9.10;89.50;;;;;;5053233;28;20613;-72
2024/03/14 03:28:31;;;;;;;16.50;9.93;;;9.10;89.50;;;;;;5051826;28;20659;-71
2024/03/14 03:30:57;;;;;;;16.30;8.50;;;9.10;89.50;;;;;;5049739;28;20542;-71
2024/03/14 03:33:23;;;;;;;17.27;9.30;;;9.00;89.50;;;;;;5051215;28;20200;-72
2024/03/14 03:35:49;;;;;;;13.40;7.80;;;9.00;89.60;;;;;;5053257;28;20425;-71
2024/03/14 03:38:15;;;;;;;18.00;10.00;;;9.10;89.60;;;;;;5052628;28;20879;-72
2024/03/14 03:40:41;;;;;;;15.13;7.90;;;9.10;89.60;;;;;;5050878;28;20196;-71
2024/03/14 03:43:11;;;;;;;14.07;8.33;;;9.10;89.50;;;;;;5048166;28;20205;-71
2024/03/14 03:45:36;;;;;;;15.63;8.87;;;9.10;89.50;;;;;;5052229;28;20423;-71
2024/03/14 03:48:02;;;;;;;14.60;10.40;;;9.10;89.50;;;;;;5050783;28;20438;-71
2024/03/14 03:50:28;;;;;;;13.80;9.10;;;9.00;89.30;;;;;;5050735;28;20754;-74
2024/03/14 03:52:54;;;;;;;15.30;8.77;;;9.10;89.50;;;;;;5051365;28;20192;-72
2024/03/14 03:55:21;;;;;;;10.80;7.07;;;9.10;89.50;;;;;;5051905;28;20181;-71
2024/03/14 03:57:47;;;;;;;12.17;6.90;;;9.10;89.50;;;;;;5051297;28;20188;-72
2024/03/14 04:02:58;;;;;;;17.17;9.57;;;9.20;89.50;;;;;;5046348;28;20470;-70
2024/03/14 04:05:27;;;;;;;12.57;7.90;;;9.10;89.30;;;;;;5051413;28;20443;-71
2024/03/14 04:07:56;;;;;;;11.73;8.03;;;9.20;89.30;;;;;;5051260;28;20447;-72
2024/03/14 04:10:23;;;;;;;15.90;8.07;;;9.20;89.20;;;;;;5051089;28;20785;-72
2024/03/14 04:12:53;;;;;;;14.30;8.70;;;9.10;88.90;;;;;;5044656;28;20455;-71
2024/03/14 04:15:22;;;;;;;14.20;8.67;;;9.00;88.70;;;;;;5051773;28;20510;-69
2024/03/14 04:17:49;;;;;;;14.90;7.30;;;9.00;88.90;;;;;;5050994;28;20419;-73
2024/03/14 04:20:16;;;;;;;11.40;7.47;;;9.10;88.90;;;;;;5051394;28;20473;-70
2024/03/14 04:22:42;;;;;;;12.07;7.70;;;9.20;88.60;;;;;;5044019;28;21010;-70
2024/03/14 04:25:14;;;;;;;13.73;7.77;;;9.10;88.30;;;;;;5045582;28;20423;-70
2024/03/14 04:27:43;;;;;;;13.33;7.97;;;9.10;88.30;;;;;;5050345;28;20728;-71
2024/03/14 04:30:20;;;;;;;13.33;7.80;;;9.10;88.00;;;;;;5051086;28;20415;-70
2024/03/14 04:32:47;;;;;;;16.73;9.10;;;9.00;87.70;;;;;;5044928;28;20955;-70
2024/03/14 04:35:15;;;;;;;15.17;8.43;;;9.00;87.40;;;;;;5045766;28;20902;-71
2024/03/14 04:37:42;;;;;;;14.70;7.93;;;8.90;87.40;;;;;;5051541;28;20461;-70
2024/03/14 04:40:12;;;;;;;15.40;8.90;;;8.90;87.60;;;;;;5050878;28;20424;-71
2024/03/14 04:42:40;;;;;;;15.37;9.10;;;8.80;87.70;;;;;;5047210;28;20479;-71
2024/03/14 04:45:07;;;;;;;14.90;8.10;;;8.70;87.80;;;;;;5046936;28;20510;-72
2024/03/14 04:47:32;;;;;;;12.30;7.60;;;8.80;88.10;;;;;;5051263;28;20904;-71
2024/03/14 04:49:58;;;;;;;15.27;8.80;;;8.80;88.10;;;;;;5050509;28;20414;-72
2024/03/14 04:52:24;;;;;;;15.33;7.40;;;8.80;88.10;;;;;;5043031;28;20216;-72
2024/03/14 04:54:49;;;;;;;11.47;7.27;;;8.90;88.10;;;;;;5050210;28;20566;-72
2024/03/14 04:57:15;;;;;;;14.13;8.00;;;8.90;87.80;;;;;;5055220;28;20181;-72
2024/03/14 04:59:40;;;;;;;10.30;6.53;;;8.80;87.60;;;;;;5050260;28;20188;-70
2024/03/14 05:02:08;;;;;;;11.97;7.00;;;8.70;87.10;;;;;;5050790;28;20243;-71
2024/03/14 05:04:34;;;;;;;11.17;6.77;;;8.60;87.00;;;;;;5051379;28;20192;-73
2024/03/14 05:07:00;;;;;;;11.10;6.80;;;8.60;87.10;;;;;;5055943;28;20447;-70
2024/03/14 05:09:27;;;;;;;12.23;6.67;;;8.60;87.10;;;;;;5056441;28;20229;-72
2024/03/14 05:11:53;;;;;;;12.77;7.30;;;8.50;86.90;;;;;;5046465;28;20288;-71
2024/03/14 05:14:19;;;;;;;12.77;6.73;;;8.40;87.00;;;;;;5051099;28;20497;-71
2024/03/14 05:16:45;;;;;;;12.10;6.50;;;8.30;87.30;;;;;;5050797;28;20208;-73
2024/03/14 05:19:15;;;;;;;18.63;8.73;;;8.20;87.60;;;;;;5050465;28;20426;-71
2024/03/14 05:21:43;;;;;;;14.17;7.63;;;8.10;87.80;;;;;;5043044;28;20451;-71
2024/03/14 05:24:10;;;;;;;16.00;7.60;;;8.00;88.00;;;;;;5048082;28;20478;-71
2024/03/14 05:26:36;;;;;;;17.43;9.00;;;8.00;88.30;;;;;;5050787;28;20416;-72
2024/03/14 05:29:01;;;;;;;17.13;8.43;;;7.90;88.40;;;;;;5049791;28;20438;-71
2024/03/14 05:31:27;;;;;;;18.83;9.00;;;7.90;88.70;;;;;;5049005;28;20204;-72
2024/03/14 05:33:52;;;;;;;22.13;10.10;;;7.90;88.90;;;;;;5052628;28;20188;-72
2024/03/14 05:36:18;;;;;;;19.30;9.37;;;7.90;88.90;;;;;;5057264;28;20806;-71
2024/03/14 05:38:44;;;;;;;21.30;9.20;;;7.90;89.20;;;;;;5057128;28;20272;-71
2024/03/14 05:41:09;;;;;;;21.50;10.30;;;7.80;89.30;;;;;;5054090;28;20204;-69
2024/03/14 05:43:35;;;;;;;21.37;9.57;;;7.80;89.60;;;;;;5058882;28;20212;-72
2024/03/14 05:46:05;;;;;;;23.23;11.17;;;7.70;90.00;;;;;;5054850;28;20936;-70
2024/03/14 05:48:31;;;;;;;23.77;10.90;;;7.70;90.20;;;;;;5057868;28;20186;-72
2024/03/14 05:50:58;;;;;;;26.00;11.67;;;7.70;90.40;;;;;;5052305;28;20860;-72
2024/03/14 05:53:28;;;;;;;26.07;11.87;;;7.70;90.40;;;;;;5052560;28;20180;-71
2024/03/14 05:55:54;;;;;;;22.87;11.40;;;7.70;90.40;;;;;;5053623;28;20423;-72
2024/03/14 05:58:21;;;;;;;27.67;11.30;;;7.70;90.40;;;;;;5054037;28;20430;-70
2024/03/14 06:00:47;;;;;;;29.03;11.93;;;7.70;90.40;;;;;;5052532;28;20231;-74
2024/03/14 06:03:13;;;;;;;21.07;10.00;;;7.90;90.50;;;;;;5046869;28;20468;-73
2024/03/14 06:05:39;;;;;;;21.90;10.63;;;7.90;90.40;;;;;;5055205;28;20180;-71
2024/03/14 06:08:05;;;;;;;24.67;11.27;;;7.90;90.20;;;;;;5052963;28;20535;-70
2024/03/14 06:10:30;;;;;;;30.43;13.23;;;7.90;89.90;;;;;;5051349;28;20430;-70
2024/03/14 06:12:56;;;;;;;24.27;11.83;;;7.90;89.90;;;;;;5045496;28;20250;-71
2024/03/14 06:15:22;;;;;;;29.10;11.87;;;7.90;89.90;;;;;;5050940;28;20179;-70
2024/03/14 06:17:51;;;;;;;26.77;12.03;;;8.00;89.90;;;;;;5052653;28;20181;-72
2024/03/14 06:20:19;;;;;;;23.33;11.10;;;8.00;89.90;;;;;;5053899;28;20260;-70
2024/03/14 06:22:45;;;;;;;27.70;11.67;;;8.00;89.90;;;;;;5046766;28;20479;-72
2024/03/14 06:25:10;;;;;;;29.20;12.20;;;7.90;90.00;;;;;;5052009;28;20426;-73
2024/03/14 06:27:41;;;;;;;31.13;13.10;;;7.90;90.00;;;;;;5052694;28;20177;-72
2024/03/14 06:30:11;;;;;;;29.53;11.67;;;8.00;90.20;;;;;;5059805;28;20191;-72
2024/03/14 06:32:36;;;;;;;27.30;12.07;;;8.00;90.10;;;;;;5047849;28;20471;-71
2024/03/14 06:35:06;;;;;;;30.90;12.33;;;8.10;90.10;;;;;;5051474;28;20767;-72
2024/03/14 06:37:33;;;;;;;32.80;12.90;;;8.20;90.00;;;;;;5054088;28;20819;-72
2024/03/14 06:39:59;;;;;;;30.60;11.00;;;8.20;89.90;;;;;;5054097;28;20419;-72
2024/03/14 06:42:25;;;;;;;28.03;12.40;;;8.20;89.90;;;;;;5048356;28;20939;-72
2024/03/14 06:44:51;;;;;;;30.07;13.40;;;8.20;89.90;;;;;;5053538;28;20427;-72
2024/03/14 06:47:18;;;;;;;26.50;11.73;;;8.20;89.90;;;;;;5054864;28;20177;-72
2024/03/14 06:49:44;;;;;;;32.23;13.30;;;8.40;90.00;;;;;;5054728;28;20531;-72
2024/03/14 06:52:09;;;;;;;44.43;12.83;;;8.40;89.90;;;;;;5050104;28;20469;-72
2024/03/14 06:54:36;;;;;;;32.53;12.47;;;8.50;89.70;;;;;;5058296;28;20667;-73
2024/03/14 06:57:02;;;;;;;29.97;12.97;;;8.50;89.60;;;;;;5058345;28;20176;-73
2024/03/14 06:59:27;;;;;;;27.37;12.23;;;8.60;89.60;;;;;;5057034;28;20410;-73
2024/03/14 07:01:56;;;;;;;27.83;12.57;;;8.80;89.30;;;;;;5054573;28;20266;-73
2024/03/14 07:04:22;;;;;;;25.73;12.03;;;8.80;89.00;;;;;;5045747;28;20235;-72
2024/03/14 07:06:47;;;;;;;24.93;11.10;;;8.90;88.70;;;;;;5051739;28;20442;-74
2024/03/14 07:09:17;;;;;;;24.07;11.57;;;9.00;88.30;;;;;;5052996;28;20266;-72
2024/03/14 07:11:45;;;;;;;24.83;11.50;;;9.10;87.80;;;;;;5049898;28;20263;-72
2024/03/14 07:14:11;;;;;;;23.37;10.00;;;9.10;87.30;;;;;;5047224;28;20993;-75
2024/03/14 07:16:38;;;;;;;25.87;12.20;;;9.10;86.90;;;;;;5054003;28;20411;-72
2024/03/14 07:19:06;;;;;;;24.80;10.40;;;9.20;86.90;;;;;;5053501;28;20831;-74
2024/03/14 07:21:33;;;;;;;25.47;12.33;;;9.20;86.80;;;;;;5052258;28;20540;-72
2024/03/14 07:23:59;;;;;;;25.07;12.30;;;9.30;86.50;;;;;;5051346;28;20518;-74
2024/03/14 07:26:31;;;;;;;30.23;11.40;;;9.30;86.50;;;;;;5057317;28;20510;-74
2024/03/14 07:28:58;;;;;;;26.77;11.87;;;9.30;86.50;;;;;;5056940;28;20498;-73
2024/03/14 07:31:28;;;;;;;22.80;11.30;;;9.40;86.50;;;;;;5056893;28;20457;-75
2024/03/14 07:33:54;;;;;;;25.60;11.23;;;9.40;86.30;;;;;;5046368;28;20411;-72
2024/03/14 07:36:20;;;;;;;28.10;11.40;;;9.40;86.20;;;;;;5058150;28;20407;-75
2024/03/14 07:38:48;;;;;;;27.70;10.70;;;9.50;85.90;;;;;;5054015;28;20415;-73
2024/03/14 07:41:20;;;;;;;23.40;11.10;;;9.50;85.60;;;;;;5048262;28;20225;-73
2024/03/14 07:43:46;;;;;;;26.70;9.47;;;9.60;85.60;;;;;;5052627;28;20513;-73
2024/03/14 07:46:12;;;;;;;22.87;10.53;;;9.60;85.50;;;;;;5053515;28;20530;-73
2024/03/14 07:48:38;;;;;;;20.50;10.87;;;9.60;85.30;;;;;;5052977;28;20681;-71
2024/03/14 07:51:07;;;;;;;21.40;10.37;;;9.60;85.50;;;;;;5048618;28;20300;-72
2024/03/14 07:53:33;;;;;;;24.10;11.43;;;9.60;85.50;;;;;;5049035;28;20842;-70
2024/03/14 07:55:59;;;;;;;23.00;9.90;;;9.70;85.50;;;;;;5053253;28;20525;-72
2024/03/14 07:58:25;;;;;;;18.70;10.40;;;9.80;85.20;;;;;;5052165;28;20451;-71
2024/03/14 08:00:52;;;;;;;20.90;8.97;;;9.80;85.00;;;;;;5050310;28;20508;-71
2024/03/14 08:03:19;;;;;;;23.10;9.30;;;9.80;85.20;;;;;;5049510;28;20471;-72
2024/03/14 08:05:50;;;;;;;19.27;9.40;;;9.90;85.20;;;;;;5051101;28;20415;-72
2024/03/14 08:08:17;;;;;;;18.00;7.60;;;10.00;85.20;;;;;;5052196;28;20445;-71
2024/03/14 08:10:45;;;;;;;25.40;10.40;;;10.10;84.10;;;;;;5051212;28;20458;-71
2024/03/14 08:13:17;;;;;;;14.53;7.50;;;10.20;83.80;;;;;;5051425;28;20419;-72
2024/03/14 08:15:52;;;;;;;17.63;7.67;;;10.20;83.70;;;;;;5051220;28;20787;-72
2024/03/14 08:18:21;;;;;;;18.90;7.50;;;10.30;83.30;;;;;;5052104;28;20778;-72
2024/03/14 08:20:47;;;;;;;18.70;7.07;;;10.30;83.10;;;;;;5049829;28;20455;-75
2024/03/14 08:23:15;;;;;;;15.50;7.30;;;10.30;83.10;;;;;;5051812;28;20470;-72
2024/03/14 08:25:42;;;;;;;17.03;7.50;;;10.40;82.80;;;;;;5049844;28;20714;-72
2024/03/14 08:28:07;;;;;;;16.53;7.87;;;10.40;82.50;;;;;;5055328;28;20793;-72
2024/03/14 08:30:37;;;;;;;15.63;7.20;;;10.30;82.50;;;;;;5050550;28;20419;-73
2024/03/14 08:33:03;;;;;;;14.00;6.83;;;10.30;83.00;;;;;;5046864;28;20452;-72
2024/03/14 08:35:29;;;;;;;12.63;7.10;;;10.30;83.00;;;;;;5053392;28;20429;-72
2024/03/14 08:37:55;;;;;;;11.57;6.60;;;10.50;82.80;;;;;;5051341;28;20431;-71
2024/03/14 08:40:21;;;;;;;13.60;7.40;;;10.50;82.50;;;;;;5051703;28;20180;-72
2024/03/14 08:42:46;;;;;;;16.20;8.10;;;10.50;82.40;;;;;;5048413;28;20483;-72
2024/03/14 08:45:13;;;;;;;15.10;7.40;;;10.60;82.70;;;;;;5050052;28;20217;-72
2024/03/14 08:47:40;;;;;;;13.07;7.00;;;10.70;82.80;;;;;;5056389;28;20192;-71
2024/03/14 08:50:09;;;;;;;14.93;7.43;;;10.90;82.80;;;;;;5058294;28;20419;-73
2024/03/14 08:52:37;;;;;;;16.60;8.03;;;11.10;82.70;;;;;;5043139;28;20455;-72
2024/03/14 08:55:23;;;;;;;11.37;6.30;;;11.20;81.90;;;;;;5058750;28;20593;-71
2024/03/14 08:57:49;;;;;;;12.30;5.67;;;11.30;81.10;;;;;;5059023;28;20427;-72
2024/03/14 09:00:17;;;;;;;11.37;6.07;;;11.50;80.20;;;;;;5057194;28;20491;-72
2024/03/14 09:02:43;;;;;;;11.57;6.50;;;11.50;79.50;;;;;;5048097;28;20483;-70
2024/03/14 09:05:14;;;;;;;9.37;5.73;;;11.60;79.50;;;;;;5052433;28;20947;-72
2024/03/14 09:07:40;;;;;;;10.40;5.97;;;11.70;78.70;;;;;;5053909;28;20469;-73
2024/03/14 09:10:16;;;;;;;8.57;5.10;;;11.80;78.40;;;;;;5053883;28;20437;-72
2024/03/14 09:12:45;;;;;;;10.20;5.77;;;11.90;77.40;;;;;;5045120;28;20466;-71
2024/03/14 09:15:12;;;;;;;8.53;5.13;;;12.00;76.80;;;;;;5051778;28;20442;-71
2024/03/14 09:17:38;;;;;;;9.23;5.00;;;12.00;77.00;;;;;;5059121;28;20402;-70
2024/03/14 09:20:08;;;;;;;8.70;4.90;;;12.10;76.50;;;;;;5057951;28;20415;-73
2024/03/14 09:22:36;;;;;;;8.27;4.80;;;12.20;75.90;;;;;;5054630;28;20557;-70
2024/03/14 09:25:02;;;;;;;8.63;5.10;;;12.20;76.40;;;;;;5059444;28;20438;-72
2024/03/14 09:27:28;;;;;;;9.60;4.57;;;12.20;76.10;;;;;;5058417;28;20430;-71
2024/03/14 09:29:55;;;;;;;6.20;3.93;;;12.30;75.80;;;;;;5057909;28;20504;-71
2024/03/14 09:32:25;;;;;;;5.27;2.60;;;12.30;75.40;;;;;;5057875;28;20211;-71
2024/03/14 09:34:51;;;;;;;5.17;3.10;;;12.30;74.80;;;;;;5051093;28;20422;-71
2024/03/14 09:37:16;;;;;;;5.00;3.20;;;12.30;74.60;;;;;;5057386;28;20959;-73
2024/03/14 09:39:42;;;;;;;3.40;2.80;;;12.50;74.30;;;;;;5053393;28;20192;-71
2024/03/14 09:42:08;;;;;;;6.83;3.43;;;12.40;74.00;;;;;;5053852;28;20208;-71
2024/03/14 09:44:35;;;;;;;3.83;3.00;;;12.50;74.20;;;;;;5048868;28;20278;-72
2024/03/14 09:47:37;;;;;;;5.50;3.80;;;12.60;74.20;;;;;;5052521;28;20184;-72
2024/03/14 09:50:05;;;;;;;5.00;2.80;;;12.60;74.00;;;;;;5050624;28;20538;-72
2024/03/14 09:52:35;;;;;;;4.53;3.00;;;12.70;74.30;;;;;;5042343;28;20459;-72
2024/03/14 09:55:02;;;;;;;5.97;3.00;;;13.00;74.20;;;;;;5047438;28;20663;-71
2024/03/14 09:57:31;;;;;;;3.43;2.47;;;13.20;73.30;;;;;;5050425;28;20435;-71
2024/03/14 09:59:57;;;;;;;7.47;3.37;;;13.40;72.90;;;;;;5051514;28;20419;-71
2024/03/14 10:02:26;;;;;;;4.60;2.43;;;13.40;71.80;;;;;;5049688;28;20471;-71
2024/03/14 10:04:52;;;;;;;4.33;2.83;;;13.40;71.70;;;;;;5052437;28;20611;-72
2024/03/14 10:07:17;;;;;;;5.13;2.80;;;13.40;71.70;;;;;;5055601;28;20457;-73
2024/03/14 10:09:43;;;;;;;3.50;2.83;;;13.40;71.80;;;;;;5062710;28;20438;-72
2024/03/14 10:12:14;;;;;;;6.20;3.10;;;13.50;72.00;;;;;;5046855;28;20541;-72
2024/03/14 10:14:43;;;;;;;3.80;2.80;;;13.40;72.30;;;;;;5044710;28;20181;-72
2024/03/14 10:17:10;;;;;;;5.63;2.90;;;13.50;72.40;;;;;;5050029;28;20411;-72
2024/03/14 10:19:36;;;;;;;4.70;2.70;;;13.60;72.40;;;;;;5049422;28;20908;-71
2024/03/14 10:22:04;;;;;;;4.90;2.60;;;13.80;72.00;;;;;;5043934;28;20463;-73
2024/03/14 10:24:36;;;;;;;5.60;2.87;;;13.90;71.80;;;;;;5049164;28;20419;-73
2024/03/14 10:27:04;;;;;;;3.83;2.50;;;14.00;70.50;;;;;;5051599;28;20423;-72
2024/03/14 10:29:33;;;;;;;4.50;3.00;;;14.00;70.70;;;;;;5050597;28;20554;-73
2024/03/14 10:31:59;;;;;;;4.77;3.03;;;14.10;71.00;;;;;;5051782;28;20479;-72
2024/03/14 10:34:25;;;;;;;6.17;3.60;;;14.20;70.50;;;;;;5045128;28;20470;-72
2024/03/14 10:36:54;;;;;;;3.90;2.80;;;14.30;69.80;;;;;;5051623;28;20423;-71
2024/03/14 10:39:25;;;;;;;4.97;3.00;;;14.10;70.40;;;;;;5045506;28;20450;-72
2024/03/14 10:41:51;;;;;;;3.23;2.30;;;14.20;70.70;;;;;;5047038;28;20456;-73
2024/03/14 10:44:18;;;;;;;4.30;2.63;;;14.30;69.70;;;;;;5046899;28;20531;-70
2024/03/14 10:46:53;;;;;;;4.30;3.03;;;14.40;69.40;;;;;;5057037;28;20216;-73
2024/03/14 10:49:19;;;;;;;6.27;2.80;;;14.50;69.70;;;;;;5050651;28;20476;-73
2024/03/14 10:51:49;;;;;;;4.13;2.47;;;14.70;69.20;;;;;;5048057;28;20543;-72
2024/03/14 10:54:19;;;;;;;4.43;2.50;;;15.00;69.10;;;;;;5052452;28;20419;-72
2024/03/14 10:56:46;;;;;;;4.90;2.53;;;15.30;67.50;;;;;;5050118;28;20986;-70
2024/03/14 10:59:14;;;;;;;4.73;2.40;;;15.60;67.20;;;;;;5052357;28;20488;-72
2024/03/14 11:01:47;;;;;;;2.90;2.17;;;16.00;66.60;;;;;;5046749;28;20572;-72
2024/03/14 11:04:13;;;;;;;2.93;2.40;;;16.10;65.70;;;;;;5038141;28;20486;-73
2024/03/14 11:06:39;;;;;;;2.80;2.20;;;16.10;65.60;;;;;;5050133;28;20426;-73
2024/03/14 11:09:08;;;;;;;2.93;2.10;;;16.00;65.80;;;;;;5049912;28;20423;-73
2024/03/14 11:11:38;;;;;;;3.93;1.80;;;16.10;65.80;;;;;;5046964;28;20508;-72
2024/03/14 11:14:11;;;;;;;2.37;2.00;;;16.20;65.40;;;;;;5045047;28;20415;-72
2024/03/14 11:16:42;;;;;;;2.50;1.80;;;16.20;64.50;;;;;;5051924;28;20426;-71
2024/03/14 11:19:14;;;;;;;6.50;2.03;;;16.20;64.80;;;;;;5055441;28;20453;-71
2024/03/14 11:21:40;;;;;;;2.80;1.80;;;16.30;64.20;;;;;;5049839;28;20511;-72
2024/03/14 11:24:09;;;;;;;3.23;1.83;;;16.30;63.90;;;;;;5049182;28;20470;-72
2024/03/14 11:26:37;;;;;;;2.80;1.90;;;16.30;64.10;;;;;;5053073;28;20427;-72
2024/03/14 11:29:04;;;;;;;2.50;1.80;;;16.40;63.90;;;;;;5051813;28;20450;-72
2024/03/14 11:31:38;;;;;;;3.30;2.07;;;16.20;64.50;;;;;;5049750;28;20986;-71
2024/03/14 11:34:03;;;;;;;6.97;3.27;;;16.30;64.80;;;;;;5045320;28;20429;-72
2024/03/14 11:36:30;;;;;;;3.90;2.30;;;16.50;64.70;;;;;;5053582;28;20414;-72
2024/03/14 11:39:13;;;;;;;6.40;2.10;;;16.50;63.70;;;;;;5051314;28;20279;-73
2024/03/14 11:41:41;;;;;;;2.63;1.83;;;16.10;64.70;;;;;;5049205;28;20552;-73
2024/03/14 11:44:34;;;;;;;2.63;1.60;;;16.20;64.80;;;;;;5051365;28;20474;-74
2024/03/14 11:47:01;;;;;;;3.30;2.03;;;16.30;63.80;;;;;;5050442;28;20482;-72
2024/03/14 11:49:28;;;;;;;5.83;2.73;;;16.50;64.10;;;;;;5050679;28;20432;-73
2024/03/14 11:51:55;;;;;;;2.53;1.90;;;16.60;64.40;;;;;;5045125;28;20473;-72
2024/03/14 11:54:21;;;;;;;2.97;2.03;;;16.70;64.10;;;;;;5047907;28;20420;-73
2024/03/14 11:56:53;;;;;;;2.70;1.83;;;17.00;63.80;;;;;;5050858;28;20435;-73
2024/03/14 11:59:22;;;;;;;3.33;2.10;;;17.50;62.50;;;;;;5047231;28;20431;-73
2024/03/14 12:01:50;;;;;;;3.60;1.80;;;17.90;61.60;;;;;;5048278;28;20460;-72
2024/03/14 12:04:17;;;;;;;5.73;2.07;;;18.20;61.90;;;;;;5043203;28;20554;-71
2024/03/14 12:06:46;;;;;;;3.37;2.20;;;18.50;61.70;;;;;;5052113;28;20524;-72
2024/03/14 12:09:21;;;;;;;2.07;1.57;;;18.70;61.50;;;;;;5051358;28;21057;-72
2024/03/14 12:11:48;;;;;;;2.73;2.00;;;18.90;61.50;;;;;;5050406;28;20817;-71
2024/03/14 12:14:20;;;;;;;3.30;1.60;;;18.90;60.90;;;;;;5048213;28;20503;-73
2024/03/14 12:16:49;;;;;;;4.27;2.17;;;18.90;60.30;;;;;;5054276;28;20522;-72
2024/03/14 12:19:16;;;;;;;2.70;1.50;;;18.90;60.60;;;;;;5053455;28;20870;-71
2024/03/14 12:21:54;;;;;;;3.17;2.00;;;19.00;60.30;;;;;;5050934;28;20486;-73
2024/03/14 12:24:23;;;;;;;2.70;1.70;;;18.80;60.90;;;;;;5043381;28;20483;-74
2024/03/14 12:26:58;;;;;;;1.40;1.20;;;18.80;61.20;;;;;;5053109;28;20467;-72
2024/03/14 12:29:27;;;;;;;3.10;1.83;;;18.90;60.90;;;;;;5050780;28;20486;-73
2024/03/14 12:31:55;;;;;;;3.77;1.70;;;19.30;60.40;;;;;;5046698;28;20479;-73
2024/03/14 12:34:22;;;;;;;2.27;1.40;;;19.50;59.90;;;;;;5046775;28;20432;-72
2024/03/14 12:36:51;;;;;;;2.90;1.70;;;19.50;59.70;;;;;;5060988;28;20745;-72
2024/03/14 12:39:17;;;;;;;6.23;1.80;;;19.70;59.90;;;;;;5056326;28;20446;-74
2024/03/14 12:41:43;;;;;;;2.57;2.00;;;19.90;59.10;;;;;;5049056;28;20505;-72
2024/03/14 12:44:09;;;;;;;3.33;1.90;;;19.80;59.10;;;;;;5059651;28;20264;-73
2024/03/14 12:46:38;;;;;;;1.57;1.20;;;20.10;58.50;;;;;;5061870;28;20448;-73